Avinger, Texas
Current Conditions -  °F | °C
As of 10:15 AM on Monday 22 Dec 2014 (Local Time) from KOSA Reporting Station
Broken Clouds Broken Clouds  
Wind Chill: 60°   Ceiling: 4200
Heat Index: 60°   Visibility: 7mi
Dew Point: 54°   Wind: 10mph
Humidity: 79%   Direction: 170°S
Pressure: 29.65"   Gusts: NA
Location:  32.9°N, 94.56°W
Report Text: KOSA 221615Z AUTO 17009KT 7SM SCT015 SCT037 BKN042 16/12 A2965 RMK AO1 T01580122
Loading
Personal Weather Stations






























Interactive Weather Map New forecast layout! Learn more

10-Day Weather Forecast

Advertisements
Track Severe Weather on mobile